createdAt,value
2022-12-24T00:00:31.574Z,1.50
2022-12-24T00:03:37.770Z,1.60
2022-12-24T00:06:42.249Z,1.70
2022-12-24T00:09:46.513Z,2.00
2022-12-24T00:12:50.313Z,1.70
2022-12-24T00:15:54.272Z,1.90
2022-12-24T00:18:58.663Z,1.90
2022-12-24T00:22:05.786Z,2.47
2022-12-24T00:25:10.312Z,1.98
2022-12-24T00:28:15.070Z,1.73
2022-12-24T00:31:19.313Z,2.13
2022-12-24T00:34:24.404Z,2.35
2022-12-24T00:37:28.691Z,3.13
2022-12-24T00:40:33.487Z,2.30
2022-12-24T00:43:37.206Z,2.40
2022-12-24T00:46:42.472Z,2.60
2022-12-24T00:49:46.681Z,2.58
2022-12-24T00:52:50.876Z,2.88
2022-12-24T00:55:54.909Z,2.90
2022-12-24T00:58:59.213Z,2.63
2022-12-24T01:02:03.412Z,3.17
2022-12-24T01:05:10.258Z,2.53
2022-12-24T01:08:14.176Z,3.10
2022-12-24T01:11:18.605Z,2.95
2022-12-24T01:14:22.907Z,2.78
2022-12-24T01:17:26.969Z,2.92
2022-12-24T01:20:32.992Z,2.40
2022-12-24T01:23:37.040Z,2.85
2022-12-24T01:26:42.375Z,3.10
2022-12-24T01:29:46.498Z,2.70
2022-12-24T01:32:50.795Z,3.85
2022-12-24T01:35:54.615Z,3.00
2022-12-24T01:38:59.050Z,2.95
2022-12-24T01:42:41.673Z,3.15
2022-12-24T01:46:07.665Z,3.05
2022-12-24T01:49:14.480Z,2.97
2022-12-24T01:52:22.834Z,3.28
2022-12-24T01:55:26.814Z,2.85
2022-12-24T01:58:32.469Z,3.03
2022-12-24T02:01:37.424Z,2.80
2022-12-24T02:04:51.537Z,3.33
2022-12-24T02:07:56.797Z,3.55
2022-12-24T02:11:00.919Z,2.30
2022-12-24T02:14:05.122Z,3.28
2022-12-24T02:17:39.695Z,2.90
2022-12-24T02:21:15.974Z,2.60
2022-12-24T02:24:46.421Z,3.13
2022-12-24T02:27:59.511Z,2.25
2022-12-24T02:31:15.885Z,2.23
2022-12-24T02:34:31.404Z,2.70
2022-12-24T02:37:41.852Z,2.55
2022-12-24T02:40:59.156Z,2.30
2022-12-24T02:44:03.409Z,2.30
2022-12-24T02:47:09.794Z,2.20
2022-12-24T02:50:15.655Z,2.33
2022-12-24T02:53:19.885Z,2.50
2022-12-24T02:56:45.608Z,2.08
2022-12-24T03:00:04.694Z,2.17
2022-12-24T03:03:27.363Z,1.70
2022-12-24T03:06:40.314Z,1.95
2022-12-24T03:13:10.442Z,1.75
2022-12-24T03:16:17.804Z,2.00
2022-12-24T03:19:22.730Z,1.90
2022-12-24T03:22:27.399Z,1.98
2022-12-24T03:25:33.110Z,1.63
2022-12-24T03:28:39.562Z,1.73
2022-12-24T03:31:46.679Z,1.70
2022-12-24T03:34:51.022Z,1.90
2022-12-24T03:37:55.222Z,2.10
2022-12-24T03:40:59.314Z,2.10
2022-12-24T03:44:03.997Z,2.20
2022-12-24T03:47:08.193Z,2.13
2022-12-24T03:50:12.335Z,1.80
2022-12-24T03:53:16.687Z,1.70
2022-12-24T03:56:21.169Z,1.90
2022-12-24T03:59:25.595Z,1.95
2022-12-24T04:02:29.630Z,1.90
2022-12-24T04:05:33.850Z,1.40
2022-12-24T04:08:38.294Z,1.95
2022-12-24T04:11:42.498Z,1.65
2022-12-24T04:14:46.515Z,1.85
2022-12-24T04:17:50.917Z,1.80
2022-12-24T04:20:54.923Z,2.08
2022-12-24T04:23:59.181Z,1.90
2022-12-24T04:27:03.356Z,2.28
2022-12-24T04:30:08.034Z,2.45
2022-12-24T04:33:12.239Z,1.90
2022-12-24T04:36:18.113Z,2.40
2022-12-24T04:39:22.549Z,2.22
2022-12-24T04:42:26.717Z,1.98
2022-12-24T04:45:31.863Z,2.38
2022-12-24T04:48:36.927Z,1.67
2022-12-24T04:51:40.982Z,2.30
2022-12-24T04:54:47.933Z,3.00
2022-12-24T04:57:53.326Z,2.05
2022-12-24T05:01:06.837Z,2.13
2022-12-24T05:04:11.178Z,1.90
2022-12-24T05:07:15.556Z,1.92
2022-12-24T05:10:20.039Z,2.00
2022-12-24T05:13:26.918Z,2.10
2022-12-24T05:16:36.042Z,2.13
2022-12-24T05:19:39.955Z,2.10
2022-12-24T05:23:04.792Z,1.98
2022-12-24T05:26:26.914Z,2.35
2022-12-24T05:29:30.752Z,2.22
2022-12-24T05:32:34.817Z,1.98
2022-12-24T05:35:39.139Z,2.30
2022-12-24T05:38:46.455Z,2.72
2022-12-24T05:41:50.370Z,2.25
2022-12-24T05:44:54.474Z,2.20
2022-12-24T05:47:58.374Z,2.10
2022-12-24T05:51:10.175Z,2.30
2022-12-24T05:54:14.286Z,2.35
2022-12-24T05:57:18.498Z,2.78
2022-12-24T06:00:22.866Z,2.00
2022-12-24T06:03:26.982Z,1.95
2022-12-24T06:06:31.123Z,2.10
2022-12-24T06:09:35.103Z,2.17
2022-12-24T06:12:39.384Z,1.65
2022-12-24T06:15:43.518Z,2.65
2022-12-24T06:18:47.511Z,2.20
2022-12-24T06:21:51.438Z,1.90
2022-12-24T06:24:55.647Z,2.28
2022-12-24T06:27:59.650Z,1.95
2022-12-24T06:31:05.780Z,1.90
2022-12-24T06:34:09.833Z,2.20
2022-12-24T06:37:18.412Z,2.00
2022-12-24T06:40:22.785Z,2.30
2022-12-24T06:43:26.837Z,2.15
2022-12-24T06:46:31.067Z,2.40
2022-12-24T06:49:34.892Z,2.28
2022-12-24T06:52:38.847Z,2.60
2022-12-24T06:55:42.805Z,2.40
2022-12-24T06:58:46.737Z,2.28
2022-12-24T07:01:51.124Z,2.40
2022-12-24T07:04:55.127Z,2.33
2022-12-24T07:07:59.211Z,3.20
2022-12-24T07:11:03.557Z,2.72
2022-12-24T07:14:07.940Z,2.28
2022-12-24T07:17:12.369Z,2.70
2022-12-24T07:20:16.509Z,2.28
2022-12-24T07:23:21.029Z,2.30
2022-12-24T07:26:24.854Z,2.30
2022-12-24T07:29:28.896Z,2.53
2022-12-24T07:32:33.643Z,2.25
2022-12-24T07:35:37.545Z,1.90
2022-12-24T07:38:41.493Z,2.30
2022-12-24T07:41:45.681Z,2.00
2022-12-24T07:44:50.769Z,2.10
2022-12-24T07:47:54.820Z,1.95
2022-12-24T07:50:59.941Z,2.00
2022-12-24T07:54:04.843Z,1.88
2022-12-24T07:57:08.681Z,3.05
2022-12-24T08:00:13.509Z,2.28
2022-12-24T08:03:19.762Z,2.72
2022-12-24T08:06:24.054Z,2.28
2022-12-24T08:09:28.139Z,2.90
2022-12-24T08:12:32.386Z,2.67
2022-12-24T08:15:36.288Z,2.10
2022-12-24T08:18:40.525Z,2.33
2022-12-24T08:21:44.716Z,2.22
2022-12-24T08:24:48.775Z,2.42
2022-12-24T08:27:52.641Z,2.28
2022-12-24T08:30:56.753Z,2.60
2022-12-24T08:34:00.828Z,2.72
2022-12-24T08:37:04.714Z,2.65
2022-12-24T08:40:09.874Z,2.70
2022-12-24T08:43:13.523Z,2.30
2022-12-24T08:46:17.415Z,2.42
2022-12-24T08:49:21.265Z,3.72
2022-12-24T08:52:24.964Z,2.53
2022-12-24T08:55:28.985Z,2.67
2022-12-24T08:58:33.042Z,2.45
2022-12-24T09:01:37.268Z,2.42
2022-12-24T09:04:41.851Z,2.60
2022-12-24T09:07:46.027Z,2.60
2022-12-24T09:10:50.110Z,2.92
2022-12-24T09:13:54.636Z,3.30
2022-12-24T09:16:59.760Z,2.92
2022-12-24T09:20:06.771Z,2.95
2022-12-24T09:23:11.036Z,2.75
2022-12-24T09:26:21.425Z,3.00
2022-12-24T09:29:25.691Z,3.03
2022-12-24T09:32:29.620Z,2.22
2022-12-24T09:35:34.081Z,3.17
2022-12-24T09:38:40.293Z,2.70
2022-12-24T09:42:16.718Z,2.38
2022-12-24T09:45:32.023Z,3.33
2022-12-24T09:48:40.292Z,2.63
2022-12-24T09:51:49.714Z,3.10
2022-12-24T09:55:07.611Z,2.65
2022-12-24T09:58:31.554Z,2.45
2022-12-24T10:01:36.160Z,2.58
2022-12-24T10:04:42.005Z,2.83
2022-12-24T10:08:08.669Z,2.97
2022-12-24T10:11:23.549Z,2.40
2022-12-24T10:14:58.697Z,2.88
2022-12-24T10:18:19.148Z,2.20
2022-12-24T10:21:39.819Z,2.30
2022-12-24T10:24:55.899Z,2.20
2022-12-24T10:28:03.756Z,2.10
2022-12-24T10:31:08.904Z,1.70
2022-12-24T10:34:19.431Z,2.00
2022-12-24T10:37:26.054Z,1.83
2022-12-24T10:40:32.439Z,1.77
2022-12-24T10:43:39.917Z,2.42
2022-12-24T10:46:44.543Z,2.03
2022-12-24T10:49:57.472Z,2.38
2022-12-24T10:53:13.066Z,2.17
2022-12-24T10:56:19.639Z,1.88
2022-12-24T10:59:28.885Z,2.03
2022-12-24T11:02:34.464Z,1.70
2022-12-24T11:05:39.695Z,2.13
2022-12-24T11:08:45.447Z,1.75
2022-12-24T11:11:49.995Z,1.83
2022-12-24T11:15:15.942Z,2.20
2022-12-24T11:18:20.027Z,2.30
2022-12-24T11:21:40.772Z,1.73
2022-12-24T11:24:49.922Z,1.80
2022-12-24T11:27:55.832Z,2.10
2022-12-24T11:31:01.858Z,2.05
2022-12-24T11:34:31.634Z,1.55
2022-12-24T11:37:35.633Z,2.10
2022-12-24T11:40:48.831Z,2.28
2022-12-24T11:44:01.332Z,2.00
2022-12-24T11:47:05.062Z,1.65
2022-12-24T11:50:20.798Z,1.80
2022-12-24T11:53:31.495Z,1.80
2022-12-24T11:56:48.847Z,1.80
2022-12-24T11:59:52.469Z,1.85
2022-12-24T12:03:00.846Z,1.85
2022-12-24T12:06:31.305Z,1.60
2022-12-24T12:09:41.127Z,2.28
2022-12-24T12:13:09.749Z,1.83
2022-12-24T12:17:03.691Z,1.80
2022-12-24T12:20:17.572Z,2.83
2022-12-24T12:23:50.581Z,2.40
2022-12-24T12:27:10.455Z,2.20
2022-12-24T12:30:18.448Z,1.90
2022-12-24T12:33:35.908Z,2.17
2022-12-24T12:37:00.397Z,1.80
2022-12-24T12:40:13.791Z,2.67
2022-12-24T12:43:33.013Z,2.00
2022-12-24T12:46:59.152Z,1.90
2022-12-24T12:50:11.677Z,2.00
2022-12-24T12:53:21.580Z,1.85
2022-12-24T12:56:36.253Z,2.28
2022-12-24T12:59:54.974Z,2.42
2022-12-24T13:03:20.921Z,1.80
2022-12-24T13:06:29.828Z,2.17
2022-12-24T13:10:13.591Z,1.83
2022-12-24T13:13:29.525Z,2.10
2022-12-24T13:16:58.339Z,1.77
2022-12-24T13:20:14.525Z,1.92
2022-12-24T13:23:21.737Z,2.50
2022-12-24T13:26:25.707Z,2.60
2022-12-24T13:29:42.000Z,2.38
2022-12-24T13:32:50.623Z,2.42
2022-12-24T13:36:00.911Z,2.10
2022-12-24T13:39:05.167Z,2.78
2022-12-24T13:42:09.166Z,2.50
2022-12-24T13:45:28.853Z,2.35
2022-12-24T13:48:34.302Z,2.85
2022-12-24T13:51:38.481Z,2.25
2022-12-24T13:54:43.919Z,2.30
2022-12-24T13:58:03.430Z,3.13
2022-12-24T14:01:16.852Z,2.30
2022-12-24T14:04:32.961Z,4.60
2022-12-24T14:07:37.357Z,3.70
2022-12-24T14:11:10.290Z,2.80
2022-12-24T14:14:28.234Z,3.15
2022-12-24T14:17:33.347Z,2.60
2022-12-24T14:20:38.074Z,2.72
2022-12-24T14:23:51.513Z,2.80
2022-12-24T14:27:06.556Z,3.33
2022-12-24T14:30:21.004Z,2.42
2022-12-24T14:33:32.840Z,2.80
2022-12-24T14:36:37.324Z,3.53
2022-12-24T14:39:44.680Z,3.15
2022-12-24T14:42:57.945Z,2.67
2022-12-24T14:46:15.793Z,2.72
2022-12-24T14:49:35.441Z,2.70
2022-12-24T14:53:06.182Z,3.15
2022-12-24T14:56:17.215Z,3.08
2022-12-24T14:59:21.056Z,3.10
2022-12-24T15:02:42.704Z,2.88
2022-12-24T15:05:52.584Z,3.10
2022-12-24T15:08:56.602Z,3.08
2022-12-24T15:12:04.784Z,3.20
2022-12-24T15:15:16.204Z,6.90
2022-12-24T15:18:29.519Z,7.07
2022-12-24T15:21:45.759Z,8.10
2022-12-24T15:24:49.596Z,9.32
2022-12-24T15:27:53.946Z,9.77
2022-12-24T15:31:09.364Z,9.20
2022-12-24T15:34:40.523Z,3.58
2022-12-24T15:37:44.861Z,3.50
2022-12-24T15:40:49.421Z,3.42
2022-12-24T15:43:55.447Z,2.80
2022-12-24T15:47:00.827Z,3.30
2022-12-24T15:50:06.280Z,3.55
2022-12-24T15:53:20.045Z,3.30
2022-12-24T15:56:44.080Z,3.20
2022-12-24T15:59:57.322Z,3.17
2022-12-24T16:03:23.325Z,2.72
2022-12-24T16:06:28.306Z,4.03
2022-12-24T16:09:42.035Z,4.30
2022-12-24T16:12:46.151Z,4.43
2022-12-24T16:16:00.504Z,3.50
2022-12-24T16:19:07.073Z,4.50
2022-12-24T16:22:31.516Z,4.28
2022-12-24T16:25:35.463Z,3.15
2022-12-24T16:28:39.272Z,3.25
2022-12-24T16:31:52.503Z,3.90
2022-12-24T16:34:56.675Z,3.00
2022-12-24T16:38:00.461Z,3.53
2022-12-24T16:41:04.678Z,3.70
2022-12-24T16:44:08.679Z,3.65
2022-12-24T16:47:18.189Z,4.40
2022-12-24T16:50:22.183Z,4.55
2022-12-24T16:53:26.168Z,4.65
2022-12-24T16:56:30.057Z,7.20
2022-12-24T16:59:33.893Z,7.53
2022-12-24T17:02:39.530Z,8.98
2022-12-24T17:05:44.502Z,5.85
2022-12-24T17:08:49.437Z,3.95
2022-12-24T17:11:53.320Z,4.43
2022-12-24T17:14:57.284Z,4.88
2022-12-24T17:18:01.176Z,5.55
2022-12-24T17:21:06.824Z,4.18
2022-12-24T17:24:12.343Z,4.25
2022-12-24T17:27:16.383Z,4.03
2022-12-24T17:30:20.439Z,4.32
2022-12-24T17:33:25.556Z,3.20
2022-12-24T17:36:29.462Z,3.13
2022-12-24T17:39:33.984Z,3.63
2022-12-24T17:42:38.016Z,3.05
2022-12-24T17:45:42.233Z,3.70
2022-12-24T17:48:46.177Z,4.38
2022-12-24T17:51:50.114Z,4.30
2022-12-24T17:54:54.858Z,3.63
2022-12-24T17:57:59.395Z,4.78
2022-12-24T18:01:03.759Z,3.40
2022-12-24T18:04:07.910Z,3.40
2022-12-24T18:07:12.124Z,3.50
2022-12-24T18:10:16.427Z,3.90
2022-12-24T18:13:20.514Z,3.50
2022-12-24T18:16:30.477Z,3.88
2022-12-24T18:19:35.341Z,3.33
2022-12-24T18:22:39.481Z,3.15
2022-12-24T18:25:43.463Z,3.17
2022-12-24T18:28:47.686Z,3.28
2022-12-24T18:31:51.735Z,3.30
2022-12-24T18:34:55.653Z,3.35
2022-12-24T18:37:59.637Z,3.47
2022-12-24T18:41:06.124Z,3.58
2022-12-24T18:44:10.630Z,3.28
2022-12-24T18:47:15.040Z,3.42
2022-12-24T18:50:19.033Z,4.35
2022-12-24T18:53:23.063Z,3.65
2022-12-24T18:56:27.533Z,3.53
2022-12-24T18:59:31.825Z,3.15
2022-12-24T19:02:35.868Z,3.15
2022-12-24T19:05:39.981Z,4.07
2022-12-24T19:09:01.192Z,3.15
2022-12-24T19:12:06.007Z,3.70
2022-12-24T19:15:10.545Z,3.60
2022-12-24T19:18:14.416Z,3.30
2022-12-24T19:21:18.833Z,3.47
2022-12-24T19:24:22.650Z,4.20
2022-12-24T19:27:26.679Z,5.75
2022-12-24T19:30:30.845Z,5.55
2022-12-24T19:33:42.993Z,6.38
2022-12-24T19:36:48.067Z,6.30
2022-12-24T19:39:52.336Z,5.95
2022-12-24T19:42:56.318Z,5.47
2022-12-24T19:46:00.547Z,5.10
2022-12-24T19:49:07.054Z,4.15
2022-12-24T19:52:11.016Z,4.53
2022-12-24T19:55:15.266Z,5.18
2022-12-24T19:58:19.542Z,4.07
2022-12-24T20:01:26.077Z,3.70
2022-12-24T20:04:30.016Z,4.30
2022-12-24T20:07:34.297Z,4.30
2022-12-24T20:10:43.686Z,4.55
2022-12-24T20:13:47.929Z,3.75
2022-12-24T20:16:52.400Z,4.15
2022-12-24T20:19:56.376Z,3.92
2022-12-24T20:23:00.866Z,4.35
2022-12-24T20:26:05.787Z,4.75
2022-12-24T20:29:11.513Z,4.70
2022-12-24T20:32:15.833Z,4.60
2022-12-24T20:35:20.403Z,4.60
2022-12-24T20:38:24.476Z,4.30
2022-12-24T20:41:30.077Z,5.10
2022-12-24T20:44:33.772Z,4.20
2022-12-24T20:47:39.136Z,4.30
2022-12-24T20:50:43.573Z,5.68
2022-12-24T20:53:47.996Z,6.07
2022-12-24T20:56:57.565Z,4.90
2022-12-24T21:00:02.495Z,6.65
2022-12-24T21:03:06.234Z,6.00
2022-12-24T21:06:10.318Z,6.00
2022-12-24T21:09:14.667Z,6.25
2022-12-24T21:12:37.678Z,5.90
2022-12-24T21:15:42.246Z,5.78
2022-12-24T21:18:45.962Z,5.80
2022-12-24T21:21:50.197Z,5.57
2022-12-24T21:24:54.515Z,5.70
2022-12-24T21:27:58.713Z,5.85
2022-12-24T21:31:09.155Z,5.53
2022-12-24T21:34:13.287Z,5.57
2022-12-24T21:37:17.500Z,5.55
2022-12-24T21:40:21.385Z,6.20
2022-12-24T21:43:25.531Z,5.65
2022-12-24T21:46:30.206Z,5.28
2022-12-24T21:49:53.019Z,5.25
2022-12-24T21:53:17.343Z,5.73
2022-12-24T21:56:22.323Z,5.20
2022-12-24T21:59:26.996Z,5.43
2022-12-24T22:02:31.572Z,5.28
2022-12-24T22:05:35.818Z,5.65
2022-12-24T22:08:58.563Z,5.78
2022-12-24T22:12:02.453Z,5.22
2022-12-24T22:15:07.077Z,6.07
2022-12-24T22:18:11.951Z,5.82
2022-12-24T22:21:16.047Z,5.20
2022-12-24T22:24:20.210Z,5.82
2022-12-24T22:27:24.274Z,5.32
2022-12-24T22:30:28.488Z,24.52
2022-12-24T22:33:35.958Z,15.48
2022-12-24T22:36:40.192Z,5.15
2022-12-24T22:39:44.120Z,5.10
2022-12-24T22:42:47.923Z,5.97
2022-12-24T22:45:52.088Z,4.22
2022-12-24T22:48:56.516Z,4.60
2022-12-24T22:52:00.699Z,5.25
2022-12-24T22:55:05.118Z,4.60
2022-12-24T22:58:08.880Z,5.20
2022-12-24T23:01:12.967Z,4.80
2022-12-24T23:04:17.326Z,4.43
2022-12-24T23:07:21.434Z,4.93
2022-12-24T23:10:25.571Z,4.25
2022-12-24T23:13:48.603Z,4.93
2022-12-24T23:16:52.937Z,4.30
2022-12-24T23:19:57.298Z,4.97
2022-12-24T23:23:01.450Z,4.30
2022-12-24T23:26:07.757Z,3.78
2022-12-24T23:29:11.547Z,4.03
2022-12-24T23:32:15.653Z,4.20
2022-12-24T23:35:19.644Z,4.45
2022-12-24T23:38:23.879Z,4.10
2022-12-24T23:41:28.017Z,4.43
2022-12-24T23:44:32.935Z,4.00
2022-12-24T23:47:36.778Z,4.38
2022-12-24T23:50:41.733Z,4.57
2022-12-24T23:53:46.305Z,5.38
2022-12-24T23:56:50.203Z,6.10
2022-12-24T23:59:54.241Z,3.88
